createdAt,value
2019-04-21T00:00:33.031Z,12.40
2019-04-21T00:03:11.466Z,12.40
2019-04-21T00:05:57.127Z,12.40
2019-04-21T00:08:30.959Z,12.40
2019-04-21T00:11:03.012Z,12.40
2019-04-21T00:13:30.508Z,12.30
2019-04-21T00:15:48.954Z,12.30
2019-04-21T00:18:40.890Z,12.30
2019-04-21T00:21:14.876Z,12.30
2019-04-21T00:23:59.065Z,12.30
2019-04-21T00:26:32.121Z,12.30
2019-04-21T00:29:03.925Z,12.30
2019-04-21T00:31:28.550Z,12.10
2019-04-21T00:33:48.185Z,12.00
2019-04-21T00:36:24.190Z,11.90
2019-04-21T00:39:25.121Z,11.90
2019-04-21T00:41:47.457Z,12.00
2019-04-21T00:44:04.755Z,11.90
2019-04-21T00:46:41.278Z,11.90
2019-04-21T00:49:12.232Z,11.90
2019-04-21T00:52:13.908Z,11.90
2019-04-21T00:54:50.118Z,11.80
2019-04-21T00:57:18.074Z,11.80
2019-04-21T00:59:45.415Z,11.70
2019-04-21T01:02:10.910Z,11.70
2019-04-21T01:04:50.117Z,11.60
2019-04-21T01:07:22.210Z,11.40
2019-04-21T01:09:45.263Z,11.30
2019-04-21T01:12:26.833Z,11.30
2019-04-21T01:15:04.921Z,11.30
2019-04-21T01:17:27.755Z,11.10
2019-04-21T01:19:55.719Z,11.00
2019-04-21T01:22:09.684Z,11.00
2019-04-21T01:24:43.767Z,11.00
2019-04-21T01:27:22.429Z,11.00
2019-04-21T01:30:05.617Z,11.00
2019-04-21T01:32:37.398Z,11.00
2019-04-21T01:35:08.721Z,11.00
2019-04-21T01:37:44.287Z,11.10
2019-04-21T01:40:16.962Z,11.10
2019-04-21T01:42:46.907Z,11.10
2019-04-21T01:45:20.142Z,11.10
2019-04-21T01:47:44.346Z,11.10
2019-04-21T01:50:09.596Z,11.00
2019-04-21T01:55:35.695Z,11.00
2019-04-21T01:58:09.827Z,11.00
2019-04-21T02:00:45.144Z,10.90
2019-04-21T02:03:43.931Z,10.90
2019-04-21T02:05:58.713Z,10.70
2019-04-21T02:08:28.780Z,10.70
2019-04-21T02:11:08.013Z,10.70
2019-04-21T02:13:28.901Z,10.70
2019-04-21T02:16:08.406Z,10.60
2019-04-21T02:18:37.959Z,10.60
2019-04-21T02:20:53.851Z,10.50
2019-04-21T02:23:46.453Z,10.50
2019-04-21T02:26:12.723Z,10.40
2019-04-21T02:28:49.832Z,10.40
2019-04-21T02:34:08.825Z,10.40
2019-04-21T02:36:41.300Z,10.40
2019-04-21T02:39:08.365Z,10.30
2019-04-21T02:41:30.833Z,10.30
2019-04-21T02:44:08.246Z,10.30
2019-04-21T02:46:40.163Z,10.20
2019-04-21T02:49:17.211Z,10.20
2019-04-21T02:56:43.906Z,10.00
2019-04-21T03:04:56.827Z,9.90
2019-04-21T03:07:27.907Z,9.90
2019-04-21T03:09:51.176Z,9.80
2019-04-21T03:12:28.908Z,9.80
2019-04-21T03:15:04.389Z,9.80
2019-04-21T03:20:14.985Z,9.80
2019-04-21T03:22:31.520Z,9.80
2019-04-21T03:25:39.121Z,9.70
2019-04-21T03:27:51.257Z,9.70
2019-04-21T03:38:14.742Z,9.60
2019-04-21T03:47:53.227Z,9.50
2019-04-21T03:50:27.402Z,9.40
2019-04-21T04:01:04.159Z,9.30
2019-04-21T04:04:18.005Z,9.30
2019-04-21T04:06:56.564Z,9.20
2019-04-21T04:09:26.388Z,9.10
2019-04-21T04:17:04.800Z,9.10
2019-04-21T04:19:37.803Z,9.20
2019-04-21T04:27:20.860Z,9.20
2019-04-21T04:29:39.939Z,9.20
2019-04-21T04:32:03.657Z,9.20
2019-04-21T04:42:56.193Z,9.10
2019-04-21T04:50:29.956Z,9.00
2019-04-21T04:55:33.663Z,8.90
2019-04-21T05:00:54.086Z,8.90
2019-04-21T05:03:01.194Z,8.90
2019-04-21T05:16:43.183Z,8.90
2019-04-21T05:19:10.172Z,9.00
2019-04-21T05:23:55.762Z,9.00
2019-04-21T05:26:28.605Z,9.00
2019-04-21T05:28:55.208Z,9.00
2019-04-21T05:32:04.970Z,8.90
2019-04-21T05:34:36.086Z,9.00
2019-04-21T05:37:24.696Z,9.10
2019-04-21T05:39:55.833Z,9.10
2019-04-21T05:42:31.758Z,9.20
2019-04-21T05:45:22.579Z,9.20
2019-04-21T05:50:23.964Z,9.40
2019-04-21T05:52:49.739Z,9.50
2019-04-21T05:55:40.464Z,9.60
2019-04-21T05:58:04.155Z,9.70
2019-04-21T06:00:59.282Z,9.70
2019-04-21T06:03:10.073Z,9.80
2019-04-21T06:05:55.688Z,9.90
2019-04-21T06:08:13.246Z,10.00
2019-04-21T06:10:50.829Z,10.10
2019-04-21T06:13:19.899Z,10.20
2019-04-21T06:16:03.212Z,10.30
2019-04-21T06:18:28.442Z,10.40
2019-04-21T06:20:56.933Z,10.60
2019-04-21T06:23:25.107Z,10.70
2019-04-21T06:26:11.823Z,10.90
2019-04-21T06:28:37.925Z,11.00
2019-04-21T06:33:36.248Z,11.30
2019-04-21T06:41:32.714Z,11.70
2019-04-21T06:49:02.769Z,12.10
2019-04-21T06:51:38.634Z,12.20
2019-04-21T06:54:16.131Z,12.40
2019-04-21T06:59:09.671Z,12.70
2019-04-21T07:01:54.762Z,12.90
2019-04-21T07:04:25.404Z,13.00
2019-04-21T07:11:52.892Z,13.60
2019-04-21T07:19:34.941Z,13.80
2019-04-21T07:21:57.400Z,13.90
2019-04-21T07:27:08.954Z,14.20
2019-04-21T07:29:39.485Z,14.30
2019-04-21T07:32:11.754Z,14.40
2019-04-21T07:34:38.283Z,14.50
2019-04-21T07:37:12.583Z,14.60
2019-04-21T07:39:45.263Z,14.90
2019-04-21T07:42:13.357Z,14.90
2019-04-21T07:44:44.070Z,14.90
2019-04-21T07:47:23.392Z,15.10
2019-04-21T07:50:01.041Z,15.20
2019-04-21T07:52:39.546Z,15.50
2019-04-21T07:55:22.112Z,15.50
2019-04-21T07:57:39.463Z,15.60
2019-04-21T08:00:21.276Z,15.70
2019-04-21T08:02:49.709Z,15.80
2019-04-21T08:05:31.170Z,16.00
2019-04-21T08:07:54.779Z,15.90
2019-04-21T08:10:21.226Z,15.90
2019-04-21T08:12:47.744Z,15.80
2019-04-21T08:15:27.588Z,15.90
2019-04-21T08:18:02.635Z,15.90
2019-04-21T08:20:28.592Z,15.90
2019-04-21T08:25:34.919Z,16.30
2019-04-21T08:28:05.412Z,16.30
2019-04-21T08:30:36.461Z,16.50
2019-04-21T08:33:16.208Z,16.90
2019-04-21T08:36:05.982Z,17.00
2019-04-21T08:38:16.828Z,17.10
2019-04-21T08:40:45.149Z,17.30
2019-04-21T08:43:30.671Z,17.40
2019-04-21T08:46:08.440Z,17.60
2019-04-21T08:48:25.396Z,17.70
2019-04-21T08:51:08.300Z,17.90
2019-04-21T08:53:28.969Z,18.00
2019-04-21T08:56:41.647Z,18.00
2019-04-21T08:59:19.297Z,18.00
2019-04-21T09:02:06.314Z,17.90
2019-04-21T09:04:41.463Z,17.80
2019-04-21T09:07:14.717Z,18.00
2019-04-21T09:09:47.754Z,18.20
2019-04-21T09:12:14.932Z,18.20
2019-04-21T09:14:48.771Z,18.20
2019-04-21T09:17:19.155Z,18.50
2019-04-21T09:20:12.954Z,18.70
2019-04-21T09:22:25.546Z,18.60
2019-04-21T09:24:59.712Z,18.80
2019-04-21T09:27:27.422Z,19.10
2019-04-21T09:29:47.896Z,19.00
2019-04-21T09:32:19.715Z,19.10
2019-04-21T09:34:47.126Z,19.20
2019-04-21T09:37:28.648Z,19.20
2019-04-21T09:39:52.419Z,19.30
2019-04-21T09:42:26.983Z,19.30
2019-04-21T09:44:57.986Z,19.40
2019-04-21T09:47:35.154Z,19.60
2019-04-21T09:49:58.456Z,19.60
2019-04-21T09:52:37.533Z,19.60
2019-04-21T09:55:06.980Z,19.80
2019-04-21T09:57:41.544Z,20.00
2019-04-21T10:00:14.227Z,19.80
2019-04-21T10:02:47.055Z,19.80
2019-04-21T10:05:10.437Z,20.10
2019-04-21T10:07:42.385Z,20.30
2019-04-21T10:10:12.931Z,20.40
2019-04-21T10:12:43.386Z,20.50
2019-04-21T10:15:14.199Z,20.70
2019-04-21T10:17:51.914Z,20.80
2019-04-21T10:20:22.390Z,20.90
2019-04-21T10:22:53.107Z,21.00
2019-04-21T10:25:23.396Z,21.10
2019-04-21T10:27:53.327Z,21.20
2019-04-21T10:30:24.588Z,21.40
2019-04-21T10:32:54.856Z,21.40
2019-04-21T10:35:26.195Z,21.50
2019-04-21T10:38:10.381Z,21.50
2019-04-21T10:40:32.608Z,21.60
2019-04-21T10:43:02.257Z,21.60
2019-04-21T10:45:32.794Z,21.70
2019-04-21T10:48:03.101Z,21.80
2019-04-21T10:50:33.149Z,21.80
2019-04-21T10:53:24.963Z,21.70
2019-04-21T10:56:09.681Z,21.80
2019-04-21T10:58:36.298Z,21.70
2019-04-21T11:01:14.199Z,21.80
2019-04-21T11:03:58.484Z,21.90
2019-04-21T11:06:30.660Z,21.80
2019-04-21T11:09:01.990Z,21.90
2019-04-21T11:11:34.128Z,21.90
2019-04-21T11:14:04.443Z,22.00
2019-04-21T11:16:35.213Z,22.10
2019-04-21T11:19:06.312Z,22.20
2019-04-21T11:21:36.732Z,22.30
2019-04-21T11:24:08.070Z,22.30
2019-04-21T11:26:38.344Z,22.30
2019-04-21T11:29:08.311Z,22.30
2019-04-21T11:31:38.944Z,22.20
2019-04-21T11:34:09.223Z,22.20
2019-04-21T11:36:40.390Z,22.30
2019-04-21T11:39:33.522Z,22.30
2019-04-21T11:41:57.446Z,22.40
2019-04-21T11:44:29.071Z,22.50
2019-04-21T11:47:00.450Z,22.50
2019-04-21T11:49:32.397Z,22.60
2019-04-21T11:52:02.961Z,22.70
2019-04-21T11:54:32.957Z,22.70
2019-04-21T11:57:13.893Z,22.70
2019-04-21T11:59:35.992Z,22.70
2019-04-21T12:02:06.211Z,22.70
2019-04-21T12:04:36.668Z,22.70
2019-04-21T12:07:07.200Z,22.70
2019-04-21T12:09:37.659Z,22.70
2019-04-21T12:12:09.254Z,22.80
2019-04-21T12:14:39.846Z,22.90
2019-04-21T12:17:10.040Z,22.90
2019-04-21T12:19:40.886Z,22.90
2019-04-21T12:22:18.173Z,22.80
2019-04-21T12:24:43.153Z,22.90
2019-04-21T12:27:14.015Z,22.90
2019-04-21T12:29:44.127Z,22.90
2019-04-21T12:32:40.185Z,23.00
2019-04-21T12:35:12.320Z,23.00
2019-04-21T12:37:42.764Z,23.00
2019-04-21T12:40:14.426Z,23.00
2019-04-21T12:42:45.478Z,23.00
2019-04-21T12:45:15.492Z,23.00
2019-04-21T12:47:48.401Z,23.10
2019-04-21T12:50:17.251Z,23.20
2019-04-21T12:52:47.989Z,23.20
2019-04-21T12:55:17.987Z,23.20
2019-04-21T12:57:47.904Z,23.40
2019-04-21T13:00:19.088Z,23.50
2019-04-21T13:02:49.805Z,23.50
2019-04-21T13:05:19.981Z,23.50
2019-04-21T13:07:50.963Z,23.60
2019-04-21T13:10:22.211Z,23.60
2019-04-21T13:12:52.283Z,23.70
2019-04-21T13:15:22.155Z,23.70
2019-04-21T13:17:52.296Z,23.70
2019-04-21T13:20:23.262Z,23.70
2019-04-21T13:22:54.325Z,23.70
2019-04-21T13:25:25.359Z,23.80
2019-04-21T13:27:56.504Z,23.80
2019-04-21T13:30:26.519Z,23.80
2019-04-21T13:32:58.632Z,23.80
2019-04-21T13:35:28.949Z,23.90
2019-04-21T13:38:00.449Z,24.00
2019-04-21T13:41:01.114Z,24.20
2019-04-21T13:43:21.061Z,24.20
2019-04-21T13:45:52.162Z,24.10
2019-04-21T13:48:22.413Z,24.10
2019-04-21T13:50:53.492Z,24.10
2019-04-21T13:53:24.995Z,24.20
2019-04-21T13:55:56.426Z,24.30
2019-04-21T13:58:26.682Z,24.40
2019-04-21T14:00:57.842Z,24.40
2019-04-21T14:03:31.465Z,24.40
2019-04-21T14:06:02.582Z,24.40
2019-04-21T14:08:33.519Z,24.40
2019-04-21T14:11:03.491Z,24.40
2019-04-21T14:13:34.258Z,24.50
2019-04-21T14:16:04.171Z,24.60
2019-04-21T14:18:34.271Z,24.70
2019-04-21T14:21:05.044Z,24.80
2019-04-21T14:23:40.619Z,24.90
2019-04-21T14:26:08.601Z,24.90
2019-04-21T14:28:39.121Z,24.90
2019-04-21T14:31:10.488Z,24.80
2019-04-21T14:33:40.499Z,24.80
2019-04-21T14:36:10.711Z,25.00
2019-04-21T14:38:40.823Z,25.00
2019-04-21T14:41:12.370Z,25.10
2019-04-21T14:43:43.837Z,25.00
2019-04-21T14:46:26.934Z,25.10
2019-04-21T14:49:29.078Z,25.10
2019-04-21T14:52:07.451Z,25.20
2019-04-21T14:54:51.569Z,25.40
2019-04-21T14:57:21.466Z,26.00
2019-04-21T14:59:51.527Z,26.30
2019-04-21T15:02:22.331Z,26.60
2019-04-21T15:04:53.617Z,26.80
2019-04-21T15:07:23.504Z,27.70
2019-04-21T15:10:02.483Z,28.80
2019-04-21T15:12:25.822Z,30.10
2019-04-21T15:14:56.034Z,30.00
2019-04-21T15:17:29.138Z,29.40
2019-04-21T15:20:02.503Z,28.90
2019-04-21T15:22:30.445Z,29.20
2019-04-21T15:25:00.702Z,29.50
2019-04-21T15:27:30.929Z,29.20
2019-04-21T15:30:00.714Z,28.30
2019-04-21T15:32:32.716Z,27.90
2019-04-21T15:35:04.021Z,27.80
2019-04-21T15:37:34.169Z,27.90
2019-04-21T15:40:14.823Z,27.70
2019-04-21T15:42:36.699Z,27.30
2019-04-21T15:45:08.447Z,26.80
2019-04-21T15:47:38.366Z,26.50
2019-04-21T15:50:13.766Z,26.60
2019-04-21T15:52:41.270Z,27.10
2019-04-21T15:55:20.978Z,27.30
2019-04-21T15:58:16.723Z,27.30
2019-04-21T16:00:56.502Z,26.70
2019-04-21T16:03:26.878Z,26.10
2019-04-21T16:05:56.786Z,25.80
2019-04-21T16:08:27.108Z,25.60
2019-04-21T16:11:00.304Z,25.20
2019-04-21T16:13:29.926Z,24.90
2019-04-21T16:16:06.322Z,24.80
2019-04-21T16:18:36.452Z,24.70
2019-04-21T16:21:06.267Z,24.50
2019-04-21T16:23:38.222Z,24.40
2019-04-21T16:26:08.801Z,24.40
2019-04-21T16:28:39.498Z,24.40
2019-04-21T16:31:12.158Z,24.40
2019-04-21T16:33:43.239Z,24.40
2019-04-21T16:36:15.516Z,24.40
2019-04-21T16:38:45.625Z,24.20
2019-04-21T16:41:16.141Z,24.00
2019-04-21T16:43:47.131Z,23.90
2019-04-21T16:46:19.660Z,23.80
2019-04-21T16:48:51.645Z,23.70
2019-04-21T16:51:22.244Z,23.60
2019-04-21T16:54:03.951Z,23.50
2019-04-21T16:56:39.641Z,23.60
2019-04-21T16:59:24.292Z,23.50
2019-04-21T17:01:56.556Z,23.40
2019-04-21T17:04:26.609Z,23.30
2019-04-21T17:06:56.479Z,23.20
2019-04-21T17:09:26.623Z,23.30
2019-04-21T17:11:59.924Z,23.20
2019-04-21T17:14:45.263Z,23.20
2019-04-21T17:17:28.961Z,23.20
2019-04-21T17:19:39.656Z,23.10
2019-04-21T17:22:04.107Z,23.10
2019-04-21T17:24:34.706Z,23.00
2019-04-21T17:27:05.144Z,22.90
2019-04-21T17:29:36.574Z,22.80
2019-04-21T17:32:09.304Z,22.80
2019-04-21T17:34:39.543Z,22.80
2019-04-21T17:37:10.972Z,22.70
2019-04-21T17:39:40.979Z,22.70
2019-04-21T17:42:23.338Z,22.60
2019-04-21T17:44:43.541Z,22.50
2019-04-21T17:47:25.315Z,22.50
2019-04-21T17:49:50.723Z,22.40
2019-04-21T17:52:59.052Z,22.30
2019-04-21T17:55:31.304Z,22.30
2019-04-21T17:58:16.278Z,22.10
2019-04-21T18:01:10.882Z,22.10
2019-04-21T18:03:40.272Z,22.00
2019-04-21T18:05:56.029Z,22.00
2019-04-21T18:08:32.593Z,21.90
2019-04-21T18:10:54.448Z,21.80
2019-04-21T18:13:19.542Z,21.80
2019-04-21T18:16:01.638Z,21.70
2019-04-21T18:18:20.928Z,21.60
2019-04-21T18:20:56.732Z,21.50
2019-04-21T18:23:45.566Z,21.40
2019-04-21T18:26:09.869Z,21.30
2019-04-21T18:28:36.721Z,21.30
2019-04-21T18:31:12.137Z,21.20
2019-04-21T18:33:59.916Z,21.20
2019-04-21T18:36:45.501Z,21.20
2019-04-21T18:39:47.633Z,21.10
2019-04-21T18:42:45.482Z,21.10
2019-04-21T18:48:30.643Z,20.70
2019-04-21T18:51:04.077Z,20.40
2019-04-21T18:53:48.094Z,20.10
2019-04-21T18:56:08.282Z,19.80
2019-04-21T18:58:36.201Z,19.60
2019-04-21T19:01:12.645Z,19.50
2019-04-21T19:03:41.972Z,19.40
2019-04-21T19:06:16.434Z,19.30
2019-04-21T19:11:28.042Z,19.20
2019-04-21T19:14:28.569Z,19.10
2019-04-21T19:21:46.972Z,18.90
2019-04-21T19:27:03.166Z,18.70
2019-04-21T19:29:29.626Z,18.60
2019-04-21T19:31:57.752Z,18.50
2019-04-21T19:34:23.411Z,18.40
2019-04-21T19:36:51.976Z,18.40
2019-04-21T19:39:36.083Z,18.30
2019-04-21T19:42:00.522Z,18.20
2019-04-21T19:44:38.277Z,18.10
2019-04-21T19:47:13.774Z,18.00
2019-04-21T19:49:48.171Z,17.90
2019-04-21T19:52:05.252Z,17.80
2019-04-21T19:54:35.470Z,17.70
2019-04-21T19:57:00.847Z,17.60
2019-04-21T19:59:39.943Z,17.60
2019-04-21T20:02:02.765Z,17.50
2019-04-21T20:04:40.700Z,17.30
2019-04-21T20:07:22.076Z,17.10
2019-04-21T20:09:50.820Z,17.00
2019-04-21T20:12:34.236Z,16.90
2019-04-21T20:15:04.803Z,16.90
2019-04-21T20:17:31.192Z,16.80
2019-04-21T20:19:44.566Z,16.80
2019-04-21T20:22:14.833Z,16.90
2019-04-21T20:24:53.291Z,16.90
2019-04-21T20:27:24.031Z,16.80
2019-04-21T20:30:10.931Z,16.70
2019-04-21T20:32:38.103Z,16.70
2019-04-21T20:35:25.149Z,16.50
2019-04-21T20:37:48.015Z,16.50
2019-04-21T20:40:17.924Z,16.30
2019-04-21T20:42:48.945Z,16.20
2019-04-21T20:47:46.726Z,16.00
2019-04-21T20:50:27.413Z,15.90
2019-04-21T20:53:06.194Z,15.90
2019-04-21T20:55:26.580Z,15.90
2019-04-21T20:57:59.637Z,15.90
2019-04-21T21:00:45.701Z,15.90
2019-04-21T21:03:12.232Z,15.90
2019-04-21T21:05:41.244Z,15.80
2019-04-21T21:08:16.867Z,15.90
2019-04-21T21:10:45.281Z,15.80
2019-04-21T21:13:28.388Z,15.80
2019-04-21T21:16:03.789Z,15.80
2019-04-21T21:18:50.127Z,15.80
2019-04-21T21:21:00.372Z,15.80
2019-04-21T21:23:26.105Z,15.70
2019-04-21T21:26:01.929Z,15.60
2019-04-21T21:28:29.013Z,15.50
2019-04-21T21:31:10.678Z,15.30
2019-04-21T21:33:37.455Z,15.30
2019-04-21T21:36:10.691Z,15.30
2019-04-21T21:38:43.689Z,15.30
2019-04-21T21:41:03.311Z,15.10
2019-04-21T21:43:27.481Z,15.00
2019-04-21T21:46:01.388Z,14.90
2019-04-21T21:48:40.698Z,14.90
2019-04-21T21:51:10.743Z,14.80
2019-04-21T21:53:36.193Z,14.80
2019-04-21T21:56:06.949Z,14.70
2019-04-21T21:58:41.921Z,14.60
2019-04-21T22:01:13.414Z,14.60
2019-04-21T22:03:46.676Z,14.50
2019-04-21T22:06:20.518Z,14.40
2019-04-21T22:08:48.649Z,14.40
2019-04-21T22:11:20.121Z,14.30
2019-04-21T22:13:57.657Z,14.30
2019-04-21T22:16:27.548Z,14.20
2019-04-21T22:19:23.689Z,14.20
2019-04-21T22:21:49.405Z,14.20
2019-04-21T22:24:06.673Z,14.20
2019-04-21T22:26:31.240Z,14.20
2019-04-21T22:29:01.534Z,14.10
2019-04-21T22:31:34.163Z,14.10
2019-04-21T22:34:05.998Z,14.10
2019-04-21T22:36:48.737Z,14.00
2019-04-21T22:39:28.531Z,13.90
2019-04-21T22:41:46.606Z,13.90
2019-04-21T22:44:18.678Z,13.90
2019-04-21T22:46:59.954Z,13.80
2019-04-21T22:49:22.330Z,13.80
2019-04-21T22:51:53.969Z,13.80
2019-04-21T22:54:31.474Z,13.80
2019-04-21T22:57:01.628Z,13.80
2019-04-21T22:59:28.642Z,13.70
2019-04-21T23:01:59.673Z,13.70
2019-04-21T23:04:34.171Z,13.70
2019-04-21T23:07:10.236Z,13.70
2019-04-21T23:09:35.076Z,13.60
2019-04-21T23:12:05.185Z,13.70
2019-04-21T23:14:45.635Z,13.60
2019-04-21T23:17:29.807Z,13.60
2019-04-21T23:20:03.239Z,13.50
2019-04-21T23:22:28.035Z,13.40
2019-04-21T23:25:03.354Z,13.40
2019-04-21T23:27:33.678Z,13.40
2019-04-21T23:30:17.723Z,13.40
2019-04-21T23:32:30.659Z,13.30
2019-04-21T23:34:51.083Z,13.20
2019-04-21T23:37:24.143Z,13.10
2019-04-21T23:40:05.717Z,13.10
2019-04-21T23:42:31.876Z,13.00
2019-04-21T23:44:58.386Z,13.00
2019-04-21T23:47:41.874Z,12.90
2019-04-21T23:50:07.363Z,12.90
2019-04-21T23:52:31.878Z,12.80
2019-04-21T23:55:03.150Z,12.80
2019-04-21T23:57:39.738Z,12.80
